• Join FlightAware (Why Join?)
  • Login
  • US Flag 
12:30AM EDT


 

Airport Tracker/Info


-or-


 

Live Flight TrackerFlight Track Log ✈ RPA3228 ✈ 19-May-2013 ✈ KCHS - KDCA

Flight Track Log - Related Links

Times and Time Zones

All times are in EDT time to prevent confusion due to time zone crossing. See the RPA3228 flight status page for this flight to view local times or setup timezone preferences in your user account.

Time Position Orientation Groundspeed Altitude Reporting Facility
EDT Latitude Longitude Course Direction KTS MPH feet Rate Location/Type
08:02AM 33.2932 -79.9180 North  Level FlightAware Approximate
08:02AM 32.8856 -79.8475 43° Northeast 300 345 6,900  Level Jacksonville Center
08:03AM 33.3930 -79.8781 North  Level FlightAware Approximate
08:03AM 32.9650 -79.8522 357° North 269 310 9,400  Level Jacksonville Center
08:04AM 33.4968 -79.8533 13° North  Level FlightAware Approximate
08:04AM 33.0486 -79.8617 355° North 286 329 11,800  Level Jacksonville Center
08:05AM 33.5998 -79.8239 13° North  Level FlightAware Approximate
08:05AM 33.1344 -79.8714 355° North 293 337 13,000  Level Jacksonville Center
08:06AM 33.7033 -79.8000 North  Level FlightAware Approximate
08:06AM 33.2328 -79.8803 356° North 325 374 14,600  Level Jacksonville Center
08:07AM 33.8050 -79.7669 17° North  Level FlightAware Approximate
08:07AM 33.3328 -79.8694 North 342 394 16,500  Level Jacksonville Center
08:08AM 33.8874 -79.6955 43° Northeast  Level FlightAware Approximate
08:08AM 33.4231 -79.8067 30° Northeast 350 403 17,800  Level Jacksonville Center
08:09AM 33.5117 -79.7589 24° Northeast 377 434 19,200 1,440 Climbing Jacksonville Center
08:10AM 33.6336 -79.7119 18° North 383 441 20,700 1,320 Climbing Jacksonville Center
08:11AM 33.7389 -79.6683 19° North 388 447 21,900 1,380 Climbing Jacksonville Center
08:12AM 33.8419 -79.6244 19° North 393 452 23,500 1,500 Climbing Jacksonville Center
08:13AM 33.9342 -79.5511 33° Northeast 388 447 25,000 1,260 Climbing Jacksonville Center
08:15AM 34.0878 -79.4183 36° Northeast 369 425 27,200 1,200 Climbing Washington Center
08:16AM 34.1778 -79.3397 36° Northeast 388 447 28,500 1,320 Climbing Washington Center
08:17AM 34.2783 -79.2611 33° Northeast 398 458 29,900 1,200 Climbing Washington Center
08:18AM 34.3761 -79.2003 27° Northeast 403 464 31,000 540 Climbing Washington Center
08:19AM 34.4844 -79.1394 25° Northeast 408 470 31,000  Level Washington Center
08:20AM 34.5969 -79.0736 26° Northeast 426 490 31,000  Level Washington Center
08:21AM 34.7114 -79.0103 24° Northeast 437 503 31,000  Level Washington Center
08:22AM 34.8217 -78.9417 27° Northeast 437 503 31,000  Level Washington Center
08:23AM 34.9342 -78.8781 25° Northeast 437 503 31,000  Level Washington Center
08:24AM 35.0464 -78.8139 25° Northeast 437 503 31,000  Level Washington Center
08:25AM 35.1567 -78.7472 26° Northeast 437 503 31,000  Level Washington Center
08:26AM 35.2669 -78.6828 26° Northeast 432 497 31,000  Level Washington Center
08:27AM 35.3792 -78.6183 25° Northeast 432 497 31,000  Level Washington Center
08:28AM 35.4789 -78.5558 27° Northeast 437 503 31,000  Level Washington Center
08:29AM 35.6017 -78.4811 26° Northeast 437 503 31,000  Level Washington Center
08:30AM 35.7075 -78.4211 25° Northeast 448 516 31,000  Level Washington Center
08:31AM 35.8175 -78.3558 26° Northeast 448 516 31,000  Level Washington Center
08:32AM 35.9294 -78.2906 25° Northeast 448 516 31,000  Level Washington Center
08:33AM 36.0417 -78.2225 26° Northeast 443 510 31,000  Level Washington Center
08:34AM 36.1558 -78.1542 26° Northeast 443 510 31,000 -1,200 Level Washington Center
08:35AM 36.2658 -78.0856 27° Northeast 443 510 28,700 -2,040 Descending Washington Center
08:36AM 36.3756 -78.0194 26° Northeast 443 510 27,000 -840 Descending Washington Center
08:37AM 36.4939 -77.9483 26° Northeast 430 495 27,000 -600 Level Washington Center
08:38AM 36.6058 -77.8792 26° Northeast 430 495 25,900 -1,440 Descending Washington Center
08:39AM 36.7133 -77.8125 26° Northeast 430 495 24,200 -1,680 Descending Washington Center
08:40AM 36.8169 -77.7478 27° Northeast 425 489 22,600 -1,140 Descending Washington Center
08:41AM 36.9203 -77.6833 26° Northeast 420 483 22,000 -360 Descending Washington Center
08:42AM 37.0256 -77.6236 24° Northeast 414 476 22,000  Level Washington Center
08:43AM 37.1347 -77.5769 19° North 409 471 22,000  Level Washington Center
08:44AM 37.2417 -77.5433 14° North 404 465 22,000  Level Washington Center
08:45AM 37.3531 -77.5017 17° North 404 465 22,000  Level Washington Center
08:46AM 37.4619 -77.4625 16° North 404 465 22,000  Level Washington Center
08:47AM 37.5692 -77.4233 16° North 404 465 22,000  Level Washington Center
08:48AM 37.6803 -77.3839 16° North 404 465 22,000 -660 Level Washington Center
08:49AM 37.7850 -77.3444 17° North 404 465 20,800 -1,800 Descending Washington Center
08:50AM 37.8919 -77.3047 16° North 404 465 18,500 -2,160 Descending Washington Center
08:51AM 37.9906 -77.2675 17° North 394 453 16,500 -2,220 Descending Washington Center
08:52AM 38.0889 -77.2353 14° North 380 437 14,100 -2,220 Descending Washington Center
08:53AM 38.1875 -77.2006 15° North 366 421 12,000 -2,160 Descending Washington Center
08:54AM 38.2819 -77.1575 20° North 366 421 10,000 -1,200 Descending Washington Center
08:55AM 38.3494 -77.1008 33° Northeast 326 375 9,700 -720 Descending Washington Center
08:56AM 38.4064 -77.0436 38° Northeast 287 330 8,600 -1,440 Descending Washington Center
08:57AM 38.4672 -77.0025 28° Northeast 261 300 6,900 -1,560 Descending Washington Center
08:58AM 38.5361 -77.0089 356° North 236 272 5,500 -1,380 Descending Washington Center
08:59AM 38.6006 -77.0156 355° North 236 272 4,200 -960 Descending Washington Center
09:00AM 38.6547 -77.0219 355° North 225 259 3,700 -720 Descending Washington Center
09:01AM 38.7067 -77.0256 357° North 201 231 2,800 -900 Descending Washington Center